HSG weather

Saga Airport
Saga, Saga Prefecture, Japan

Public forecast

Using degrees Celsius for public forecast. Weather courtesy of forecast.io.

METAR (pilot weather report)

Retrieved 2019/05/21 00:00 UTC (33 minutes ago):

RJFS 210000Z 30004KT 270V350 9999 FEW030 BKN/// 18/10 Q1008

TAF (pilot weather forecast)

Forecast is more than 12 hours old.

Retrieved 2019/05/20 00:33 UTC (1 day ago):

TAF RJFS 202308Z 2100/2206 30011KT 9999 FEW030 BECMG 2115/2118 02003KT BECMG 2203/2206 16012KT